createdAt,value
2023-03-15T00:05:51.094Z,990
2023-03-15T00:11:51.081Z,990
2023-03-15T00:17:51.064Z,990
2023-03-15T00:23:51.078Z,990
2023-03-15T00:29:51.049Z,990
2023-03-15T00:35:51.070Z,990
2023-03-15T00:41:51.074Z,990
2023-03-15T00:47:51.076Z,990
2023-03-15T00:53:51.060Z,990
2023-03-15T00:59:51.098Z,990
2023-03-15T01:05:51.171Z,990
2023-03-15T01:11:51.043Z,990
2023-03-15T01:17:51.086Z,990
2023-03-15T01:23:51.052Z,990
2023-03-15T01:29:51.031Z,990
2023-03-15T01:35:51.121Z,990
2023-03-15T01:41:51.043Z,990
2023-03-15T01:47:51.060Z,990
2023-03-15T01:53:51.083Z,990
2023-03-15T01:59:51.037Z,991
2023-03-15T02:05:51.206Z,991
2023-03-15T02:11:51.153Z,991
2023-03-15T02:17:51.060Z,991
2023-03-15T02:23:51.047Z,991
2023-03-15T02:29:51.123Z,991
2023-03-15T02:35:51.136Z,991
2023-03-15T02:41:51.042Z,991
2023-03-15T02:47:51.075Z,991
2023-03-15T02:53:51.062Z,991
2023-03-15T02:59:51.199Z,991
2023-03-15T03:05:51.074Z,991
2023-03-15T03:11:51.037Z,991
2023-03-15T03:17:51.055Z,991
2023-03-15T03:23:51.081Z,991
2023-03-15T03:29:51.018Z,991
2023-03-15T03:35:51.081Z,991
2023-03-15T03:41:51.038Z,991
2023-03-15T03:47:51.012Z,991
2023-03-15T03:53:51.026Z,991
2023-03-15T03:59:51.055Z,991
2023-03-15T04:05:51.050Z,991
2023-03-15T04:11:51.028Z,991
2023-03-15T04:17:51.063Z,991
2023-03-15T04:23:51.022Z,991
2023-03-15T04:29:51.021Z,991
2023-03-15T04:35:51.123Z,991
2023-03-15T04:41:51.034Z,991
2023-03-15T04:47:51.028Z,991
2023-03-15T04:53:51.062Z,991
2023-03-15T04:59:51.037Z,991
2023-03-15T05:05:51.023Z,991
2023-03-15T05:11:51.058Z,992
2023-03-15T05:17:51.154Z,992
2023-03-15T05:23:51.021Z,992
2023-03-15T05:29:51.115Z,992
2023-03-15T05:35:51.142Z,992
2023-03-15T05:41:51.006Z,992
2023-03-15T05:47:51.088Z,992
2023-03-15T05:53:51.025Z,992
2023-03-15T05:59:51.039Z,992
2023-03-15T06:05:51.045Z,992
2023-03-15T06:11:51.004Z,993
2023-03-15T06:17:51.000Z,993
2023-03-15T06:23:51.060Z,993
2023-03-15T06:29:51.044Z,993
2023-03-15T06:35:51.058Z,993
2023-03-15T06:41:51.150Z,993
2023-03-15T06:47:51.005Z,993
2023-03-15T06:53:51.004Z,993
2023-03-15T06:59:51.052Z,993
2023-03-15T07:05:51.035Z,993
2023-03-15T07:11:52.889Z,993
2023-03-15T07:17:51.033Z,994
2023-03-15T07:23:51.015Z,994
2023-03-15T07:29:51.074Z,994
2023-03-15T07:35:51.074Z,994
2023-03-15T07:41:51.004Z,994
2023-03-15T07:47:50.994Z,994
2023-03-15T07:53:51.021Z,994
2023-03-15T07:59:51.014Z,994
2023-03-15T08:05:50.982Z,994
2023-03-15T08:11:59.958Z,994
2023-03-15T08:17:51.065Z,994
2023-03-15T08:23:51.001Z,995
2023-03-15T08:29:53.309Z,995
2023-03-15T08:35:51.100Z,995
2023-03-15T08:41:51.046Z,995
2023-03-15T08:47:51.015Z,995
2023-03-15T08:53:50.983Z,995
2023-03-15T08:59:51.005Z,995
2023-03-15T09:05:51.013Z,995
2023-03-15T09:11:58.662Z,995
2023-03-15T09:17:51.034Z,995
2023-03-15T09:23:51.005Z,995
2023-03-15T09:29:50.987Z,995
2023-03-15T09:35:51.038Z,995
2023-03-15T09:41:51.004Z,995
2023-03-15T09:47:50.982Z,995
2023-03-15T09:53:50.996Z,996
2023-03-15T09:59:51.018Z,996
2023-03-15T10:05:51.000Z,996
2023-03-15T10:12:01.291Z,996
2023-03-15T10:17:51.023Z,996
2023-03-15T10:23:50.974Z,995
2023-03-15T10:29:51.102Z,996
2023-03-15T10:36:11.077Z,995
2023-03-15T10:41:50.983Z,995
2023-03-15T10:47:59.667Z,995
2023-03-15T10:53:51.007Z,995
2023-03-15T10:59:50.992Z,996
2023-03-15T11:06:01.273Z,996
2023-03-15T11:11:51.033Z,996
2023-03-15T11:17:51.004Z,996
2023-03-15T11:23:51.060Z,996
2023-03-15T11:29:51.024Z,996
2023-03-15T11:35:51.037Z,996
2023-03-15T11:41:50.987Z,996
2023-03-15T11:47:51.015Z,996
2023-03-15T11:53:50.994Z,996
2023-03-15T11:59:50.999Z,996
2023-03-15T12:05:51.128Z,996
2023-03-15T12:11:51.087Z,996
2023-03-15T12:17:51.034Z,996
2023-03-15T12:23:51.042Z,996
2023-03-15T12:29:51.003Z,996
2023-03-15T12:35:51.053Z,996
2023-03-15T12:41:51.012Z,996
2023-03-15T12:47:51.018Z,996
2023-03-15T12:53:50.989Z,996
2023-03-15T12:59:51.019Z,996
2023-03-15T13:06:02.784Z,996
2023-03-15T13:11:51.001Z,996
2023-03-15T13:17:51.019Z,996
2023-03-15T13:23:51.005Z,996
2023-03-15T13:29:51.029Z,996
2023-03-15T13:35:51.171Z,996
2023-03-15T13:41:50.985Z,996
2023-03-15T13:47:51.093Z,996
2023-03-15T13:53:51.037Z,996
2023-03-15T13:59:50.978Z,996
2023-03-15T14:05:51.028Z,996
2023-03-15T14:11:51.009Z,996
2023-03-15T14:17:51.011Z,996
2023-03-15T14:23:51.012Z,996
2023-03-15T14:29:51.041Z,996
2023-03-15T14:35:51.053Z,996
2023-03-15T14:41:50.989Z,996
2023-03-15T14:47:57.088Z,996
2023-03-15T14:53:51.001Z,996
2023-03-15T14:59:51.002Z,996
2023-03-15T15:05:51.035Z,997
2023-03-15T15:11:51.006Z,997
2023-03-15T15:17:51.021Z,997
2023-03-15T15:23:58.321Z,997
2023-03-15T15:29:50.980Z,997
2023-03-15T15:35:51.063Z,997
2023-03-15T15:41:51.066Z,997
2023-03-15T15:47:50.992Z,997
2023-03-15T15:53:50.973Z,997
2023-03-15T15:59:51.010Z,997
2023-03-15T16:05:50.982Z,996
2023-03-15T16:11:50.975Z,996
2023-03-15T16:17:51.015Z,996
2023-03-15T16:23:50.970Z,996
2023-03-15T16:29:50.986Z,996
2023-03-15T16:35:51.046Z,996
2023-03-15T16:41:50.982Z,997
2023-03-15T16:47:50.974Z,997
2023-03-15T16:53:51.784Z,997
2023-03-15T16:59:51.025Z,997
2023-03-15T17:05:50.998Z,997
2023-03-15T17:11:50.999Z,997
2023-03-15T17:17:50.984Z,997
2023-03-15T17:23:50.993Z,997
2023-03-15T17:29:51.023Z,997
2023-03-15T17:35:51.017Z,997
2023-03-15T17:41:50.998Z,997
2023-03-15T17:47:51.153Z,997
2023-03-15T17:53:50.991Z,997
2023-03-15T17:59:50.982Z,997
2023-03-15T18:05:51.070Z,997
2023-03-15T18:11:50.989Z,997
2023-03-15T18:17:50.981Z,997
2023-03-15T18:23:51.014Z,997
2023-03-15T18:29:50.989Z,997
2023-03-15T18:35:51.006Z,997
2023-03-15T18:41:51.053Z,997
2023-03-15T18:47:51.026Z,997
2023-03-15T18:53:50.990Z,997
2023-03-15T18:59:51.014Z,997
2023-03-15T19:05:50.956Z,998
2023-03-15T19:11:50.979Z,997
2023-03-15T19:17:51.022Z,998
2023-03-15T19:23:50.962Z,998
2023-03-15T19:29:51.000Z,998
2023-03-15T19:35:51.100Z,998
2023-03-15T19:41:50.981Z,998
2023-03-15T19:47:50.993Z,998
2023-03-15T19:53:50.983Z,997
2023-03-15T19:59:50.961Z,998
2023-03-15T20:05:50.996Z,998
2023-03-15T20:11:50.990Z,998
2023-03-15T20:17:50.987Z,998
2023-03-15T20:23:50.963Z,998
2023-03-15T20:30:01.306Z,998
2023-03-15T20:35:51.065Z,998
2023-03-15T20:41:50.960Z,998
2023-03-15T20:47:50.974Z,998
2023-03-15T20:53:50.971Z,998
2023-03-15T20:59:50.981Z,998
2023-03-15T21:05:50.991Z,998
2023-03-15T21:11:50.953Z,998
2023-03-15T21:17:50.963Z,998
2023-03-15T21:23:55.266Z,998
2023-03-15T21:29:50.954Z,998
2023-03-15T21:35:51.048Z,998
2023-03-15T21:41:50.978Z,998
2023-03-15T21:47:50.939Z,998
2023-03-15T21:53:50.925Z,998
2023-03-15T21:59:50.968Z,998
2023-03-15T22:05:50.943Z,998
2023-03-15T22:11:50.949Z,998
2023-03-15T22:17:51.005Z,998
2023-03-15T22:24:01.216Z,997
2023-03-15T22:29:50.950Z,997
2023-03-15T22:35:51.021Z,997
2023-03-15T22:41:50.953Z,997
2023-03-15T22:47:50.934Z,997
2023-03-15T22:53:50.977Z,997
2023-03-15T22:59:50.937Z,997
2023-03-15T23:05:50.944Z,997
2023-03-15T23:11:50.973Z,997
2023-03-15T23:17:50.928Z,997
2023-03-15T23:24:08.230Z,997
2023-03-15T23:29:55.327Z,997
2023-03-15T23:35:50.950Z,997
2023-03-15T23:41:50.956Z,997
2023-03-15T23:47:50.972Z,997
2023-03-15T23:53:50.944Z,997
2023-03-15T23:59:50.942Z,998
